Time,TemperatureF,DewpointF,PressureIn,WindDirection,WindDirectionDegrees,WindSpeedMPH,WindSpeedGustMPH,Humidity,HourlyPrecipIn,Conditions,Clouds,dailyrainin,SoftwareType,DateUTC
2013-05-06 00:08:00,56.8,43.0,30.16,East,90,2.0,7.0,59,0.00,,,0.00,weatherlink.com 1.10,2013-05-06 04:08:00,
2013-05-06 00:24:00,55.9,43.0,30.16,ESE,109,0.0,6.0,61,0.00,,,0.00,weatherlink.com 1.10,2013-05-06 04:24:00,
2013-05-06 00:40:00,55.2,42.0,30.16,East,90,2.0,5.0,62,0.00,,,0.00,weatherlink.com 1.10,2013-05-06 04:40:00,
2013-05-06 00:55:00,54.6,42.0,30.16,ESE,120,3.0,8.0,63,0.00,,,0.00,weatherlink.com 1.10,2013-05-06 04:55:00,
2013-05-06 01:11:00,54.1,42.0,30.16,East,80,2.0,10.0,64,0.00,,,0.00,weatherlink.com 1.10,2013-05-06 05:11:00,
2013-05-06 01:27:00,53.6,42.0,30.16,ESE,105,4.0,8.0,65,0.00,,,0.00,weatherlink.com 1.10,2013-05-06 05:27:00,
2013-05-06 01:42:00,53.2,42.0,30.17,ESE,104,1.0,7.0,66,0.00,,,0.00,weatherlink.com 1.10,2013-05-06 05:42:00,
2013-05-06 01:58:00,52.7,42.0,30.16,ESE,107,6.0,7.0,68,0.00,,,0.00,weatherlink.com 1.10,2013-05-06 05:58:00,
2013-05-06 02:14:00,52.1,42.0,30.17,ESE,115,2.0,6.0,69,0.00,,,0.00,weatherlink.com 1.10,2013-05-06 06:14:00,
2013-05-06 02:30:00,51.5,42.0,30.17,SSE,164,1.0,5.0,70,0.00,,,0.00,weatherlink.com 1.10,2013-05-06 06:30:00,
2013-05-06 02:46:00,51.0,42.0,30.17,ESE,115,1.0,4.0,71,0.00,,,0.00,weatherlink.com 1.10,2013-05-06 06:46:00,
2013-05-06 03:01:00,50.4,42.0,30.17,ESE,103,1.0,3.0,72,0.00,,,0.00,weatherlink.com 1.10,2013-05-06 07:01:00,
2013-05-06 03:17:00,49.8,42.0,30.17,East,99,0.0,1.0,74,0.00,,,0.00,weatherlink.com 1.10,2013-05-06 07:17:00,
2013-05-06 03:33:00,48.9,41.0,30.17,East,99,1.0,1.0,75,0.00,,,0.00,weatherlink.com 1.10,2013-05-06 07:33:00,
2013-05-06 03:48:00,48.7,41.0,30.17,East,96,0.0,2.0,76,0.00,,,0.00,weatherlink.com 1.10,2013-05-06 07:48:00,
2013-05-06 04:05:00,48.4,42.0,30.17,SE,127,1.0,1.0,77,0.00,,,0.00,weatherlink.com 1.10,2013-05-06 08:05:00,
2013-05-06 04:20:00,48.1,41.0,30.17,ESE,105,0.0,1.0,77,0.00,,,0.00,weatherlink.com 1.10,2013-05-06 08:20:00,
2013-05-06 04:36:00,47.7,41.0,30.16,ESE,110,0.0,2.0,78,0.00,,,0.00,weatherlink.com 1.10,2013-05-06 08:36:00,
2013-05-06 04:52:00,46.9,41.0,30.17,ESE,110,0.0,1.0,79,0.00,,,0.00,weatherlink.com 1.10,2013-05-06 08:52:00,
2013-05-06 05:07:00,46.3,41.0,30.17,East,96,0.0,0.0,81,0.00,,,0.00,weatherlink.com 1.10,2013-05-06 09:07:00,
2013-05-06 05:23:00,45.5,40.0,30.17,East,96,0.0,0.0,81,0.00,,,0.00,weatherlink.com 1.10,2013-05-06 09:23:00,
2013-05-06 05:39:00,44.6,40.0,30.18,East,83,0.0,1.0,84,0.00,,,0.00,weatherlink.com 1.10,2013-05-06 09:39:00,
2013-05-06 05:55:00,44.8,41.0,30.18,ESE,121,0.0,2.0,85,0.00,,,0.00,weatherlink.com 1.10,2013-05-06 09:55:00,
2013-05-06 06:11:00,45.2,40.0,30.19,ESE,118,0.0,0.0,83,0.00,,,0.00,weatherlink.com 1.10,2013-05-06 10:11:00,
2013-05-06 06:26:00,45.7,41.0,30.19,SE,145,0.0,1.0,83,0.00,,,0.00,weatherlink.com 1.10,2013-05-06 10:26:00,
2013-05-06 06:42:00,46.6,41.0,30.20,ESE,103,0.0,4.0,81,0.00,,,0.00,weatherlink.com 1.10,2013-05-06 10:42:00,
2013-05-06 06:58:00,47.5,41.0,30.19,East,89,2.0,3.0,79,0.00,,,0.00,weatherlink.com 1.10,2013-05-06 10:58:00,
2013-05-06 07:14:00,48.8,42.0,30.20,ESE,121,2.0,5.0,76,0.00,,,0.00,weatherlink.com 1.10,2013-05-06 11:14:00,
2013-05-06 07:29:00,49.9,42.0,30.20,ESE,110,2.0,6.0,75,0.00,,,0.00,weatherlink.com 1.10,2013-05-06 11:29:00,
2013-05-06 07:45:00,50.6,42.0,30.21,East,91,4.0,10.0,73,0.00,,,0.00,weatherlink.com 1.10,2013-05-06 11:45:00,
2013-05-06 08:01:00,51.3,42.0,30.21,ESE,118,7.0,10.0,71,0.00,,,0.00,weatherlink.com 1.10,2013-05-06 12:01:00,
2013-05-06 08:17:00,52.0,43.0,30.20,ESE,105,2.0,11.0,70,0.00,,,0.00,weatherlink.com 1.10,2013-05-06 12:17:00,
2013-05-06 08:33:00,53.8,43.0,30.21,ESE,118,5.0,10.0,67,0.00,,,0.00,weatherlink.com 1.10,2013-05-06 12:33:00,
2013-05-06 08:48:00,54.9,43.0,30.21,ESE,113,2.0,8.0,65,0.00,,,0.00,weatherlink.com 1.10,2013-05-06 12:48:00,
2013-05-06 09:04:00,55.5,44.0,30.21,East,99,3.0,9.0,64,0.00,,,0.00,weatherlink.com 1.10,2013-05-06 13:04:00,
2013-05-06 09:20:00,56.4,44.0,30.21,East,95,6.0,8.0,62,0.00,,,0.00,weatherlink.com 1.10,2013-05-06 13:20:00,
2013-05-06 09:35:00,57.2,43.0,30.20,East,101,3.0,9.0,60,0.00,,,0.00,weatherlink.com 1.10,2013-05-06 13:35:00,
2013-05-06 09:51:00,58.4,43.0,30.20,NW,316,7.0,8.0,57,0.00,,,0.00,weatherlink.com 1.10,2013-05-06 13:51:00,
2013-05-06 10:07:00,59.3,43.0,30.20,ESE,112,4.0,10.0,55,0.00,,,0.00,weatherlink.com 1.10,2013-05-06 14:07:00,
2013-05-06 10:23:00,60.6,43.0,30.19,East,89,0.0,10.0,52,0.00,,,0.00,weatherlink.com 1.10,2013-05-06 14:23:00,
2013-05-06 10:39:00,61.8,43.0,30.19,East,94,11.0,13.0,50,0.00,,,0.00,weatherlink.com 1.10,2013-05-06 14:39:00,
2013-05-06 10:55:00,62.4,44.0,30.19,ESE,120,9.0,9.0,51,0.00,,,0.00,weatherlink.com 1.10,2013-05-06 14:55:00,
2013-05-06 11:11:00,63.3,43.0,30.19,West,276,1.0,7.0,48,0.00,,,0.00,weatherlink.com 1.10,2013-05-06 15:11:00,
2013-05-06 11:27:00,63.8,44.0,30.18,SSE,159,0.0,7.0,48,0.00,,,0.00,weatherlink.com 1.10,2013-05-06 15:27:00,
2013-05-06 11:43:00,64.1,42.0,30.18,NW,316,8.0,14.0,45,0.00,,,0.00,weatherlink.com 1.10,2013-05-06 15:43:00,
2013-05-06 11:58:00,65.7,43.0,30.18,ENE,73,7.0,8.0,43,0.00,,,0.00,weatherlink.com 1.10,2013-05-06 15:58:00,
2013-05-06 12:14:00,66.7,43.0,30.17,East,82,2.0,6.0,42,0.00,,,0.00,weatherlink.com 1.10,2013-05-06 16:14:00,
2013-05-06 12:30:00,67.6,43.0,30.16,ESE,105,8.0,11.0,41,0.00,,,0.00,weatherlink.com 1.10,2013-05-06 16:30:00,
2013-05-06 12:46:00,68.9,44.0,30.15,SSE,150,1.0,8.0,40,0.00,,,0.00,weatherlink.com 1.10,2013-05-06 16:46:00,
2013-05-06 13:02:00,69.4,43.0,30.14,SSE,158,2.0,8.0,38,0.00,,,0.00,weatherlink.com 1.10,2013-05-06 17:02:00,
2013-05-06 13:17:00,70.2,41.0,30.13,ESE,122,6.0,8.0,34,0.00,,,0.00,weatherlink.com 1.10,2013-05-06 17:17:00,
2013-05-06 13:33:00,71.2,40.0,30.12,SE,139,0.0,6.0,32,0.00,,,0.00,weatherlink.com 1.10,2013-05-06 17:33:00,
2013-05-06 13:49:00,72.3,39.0,30.12,SE,124,1.0,9.0,30,0.00,,,0.00,weatherlink.com 1.10,2013-05-06 17:49:00,
2013-05-06 14:05:00,72.6,37.0,30.11,West,262,3.0,10.0,27,0.00,,,0.00,weatherlink.com 1.10,2013-05-06 18:05:00,
2013-05-06 14:21:00,74.1,38.0,30.10,East,86,4.0,7.0,27,0.00,,,0.00,weatherlink.com 1.10,2013-05-06 18:21:00,
2013-05-06 14:36:00,73.1,37.0,30.10,East,93,12.0,14.0,27,0.00,,,0.00,weatherlink.com 1.10,2013-05-06 18:36:00,
2013-05-06 14:52:00,73.9,37.0,30.09,ESE,115,8.0,11.0,26,0.00,,,0.00,weatherlink.com 1.10,2013-05-06 18:52:00,
2013-05-06 15:08:00,74.6,32.0,30.09,ESE,122,2.0,12.0,21,0.00,,,0.00,weatherlink.com 1.10,2013-05-06 19:08:00,
2013-05-06 15:24:00,74.1,28.0,30.07,ESE,104,6.0,16.0,18,0.00,,,0.00,weatherlink.com 1.10,2013-05-06 19:24:00,
2013-05-06 15:39:00,74.5,28.0,30.07,WNW,296,4.0,13.0,18,0.00,,,0.00,weatherlink.com 1.10,2013-05-06 19:39:00,
2013-05-06 15:55:00,75.8,28.0,30.06,East,101,5.0,9.0,17,0.00,,,0.00,weatherlink.com 1.10,2013-05-06 19:55:00,
2013-05-06 16:11:00,76.6,27.0,30.05,ESE,113,5.0,9.0,16,0.00,,,0.00,weatherlink.com 1.10,2013-05-06 20:11:00,
2013-05-06 16:27:00,76.8,30.0,30.05,ESE,107,4.0,10.0,18,0.00,,,0.00,weatherlink.com 1.10,2013-05-06 20:27:00,
2013-05-06 16:43:00,77.1,29.0,30.05,ESE,116,4.0,9.0,17,0.00,,,0.00,weatherlink.com 1.10,2013-05-06 20:43:00,
2013-05-06 16:59:00,76.8,30.0,30.05,East,87,4.0,11.0,18,0.00,,,0.00,weatherlink.com 1.10,2013-05-06 20:59:00,
2013-05-06 17:14:00,76.8,33.0,30.04,ESE,103,3.0,10.0,20,0.00,,,0.00,weatherlink.com 1.10,2013-05-06 21:14:00,
2013-05-06 17:30:00,76.7,34.0,30.04,East,90,2.0,10.0,21,0.00,,,0.00,weatherlink.com 1.10,2013-05-06 21:30:00,
2013-05-06 17:46:00,76.1,34.0,30.04,WNW,285,3.0,9.0,22,0.00,,,0.00,weatherlink.com 1.10,2013-05-06 21:46:00,
2013-05-06 18:02:00,75.9,33.0,30.03,ESE,107,5.0,12.0,21,0.00,,,0.00,weatherlink.com 1.10,2013-05-06 22:02:00,
2013-05-06 18:18:00,75.4,37.0,30.03,NW,306,1.0,11.0,25,0.00,,,0.00,weatherlink.com 1.10,2013-05-06 22:18:00,
2013-05-06 18:33:00,74.8,39.0,30.03,WNW,287,1.0,8.0,27,0.00,,,0.00,weatherlink.com 1.10,2013-05-06 22:33:00,
2013-05-06 18:49:00,74.2,39.0,30.03,WNW,300,1.0,7.0,28,0.00,,,0.00,weatherlink.com 1.10,2013-05-06 22:49:00,
2013-05-06 19:05:00,73.5,39.0,30.03,WNW,283,2.0,6.0,29,0.00,,,0.00,weatherlink.com 1.10,2013-05-06 23:05:00,
2013-05-06 19:20:00,72.8,39.0,30.03,East,101,4.0,10.0,29,0.00,,,0.00,weatherlink.com 1.10,2013-05-06 23:20:00,
2013-05-06 19:36:00,71.6,39.0,30.04,ESE,110,2.0,6.0,31,0.00,,,0.00,weatherlink.com 1.10,2013-05-06 23:36:00,
2013-05-06 19:52:00,70.4,40.0,30.04,ESE,117,4.0,4.0,33,0.00,,,0.00,weatherlink.com 1.10,2013-05-06 23:52:00,
2013-05-06 20:08:00,69.2,41.0,30.04,East,89,2.0,3.0,36,0.00,,,0.00,weatherlink.com 1.10,2013-05-07 00:08:00,
2013-05-06 20:24:00,68.3,42.0,30.04,ESE,109,2.0,2.0,38,0.00,,,0.00,weatherlink.com 1.10,2013-05-07 00:24:00,
2013-05-06 20:39:00,67.3,43.0,30.05,ESE,108,0.0,1.0,41,0.00,,,0.00,weatherlink.com 1.10,2013-05-07 00:39:00,
2013-05-06 20:55:00,66.2,43.0,30.05,East,88,1.0,1.0,43,0.00,,,0.00,weatherlink.com 1.10,2013-05-07 00:55:00,
2013-05-06 21:11:00,65.8,44.0,30.05,East,95,1.0,3.0,46,0.00,,,0.00,weatherlink.com 1.10,2013-05-07 01:11:00,
2013-05-06 21:27:00,65.5,45.0,30.06,SE,131,2.0,4.0,47,0.00,,,0.00,weatherlink.com 1.10,2013-05-07 01:27:00,
2013-05-06 21:42:00,65.2,45.0,30.07,ESE,121,1.0,3.0,48,0.00,,,0.00,weatherlink.com 1.10,2013-05-07 01:42:00,
2013-05-06 21:58:00,65.0,46.0,30.07,ESE,113,3.0,6.0,50,0.00,,,0.00,weatherlink.com 1.10,2013-05-07 01:58:00,
2013-05-06 22:14:00,64.9,46.0,30.07,East,101,3.0,9.0,51,0.00,,,0.00,weatherlink.com 1.10,2013-05-07 02:14:00,
2013-05-06 22:30:00,64.7,47.0,30.08,East,90,8.0,8.0,53,0.00,,,0.00,weatherlink.com 1.10,2013-05-07 02:30:00,
2013-05-06 22:46:00,64.3,49.0,30.08,ESE,118,3.0,9.0,57,0.00,,,0.00,weatherlink.com 1.10,2013-05-07 02:46:00,
2013-05-06 23:01:00,63.7,49.0,30.08,ESE,106,4.0,7.0,59,0.00,,,0.00,weatherlink.com 1.10,2013-05-07 03:01:00,
2013-05-06 23:17:00,62.9,49.0,30.08,ESE,115,3.0,9.0,61,0.00,,,0.00,weatherlink.com 1.10,2013-05-07 03:17:00,
2013-05-06 23:33:00,62.3,50.0,30.08,ESE,113,5.0,6.0,64,0.00,,,0.00,weatherlink.com 1.10,2013-05-07 03:33:00,
2013-05-06 23:48:00,62.0,51.0,30.08,East,101,6.0,9.0,66,0.00,,,0.00,weatherlink.com 1.10,2013-05-07 03:48:00,